Coquille, OR

7:05 AM PST on February 08, 2016 (GMT -0800)
Coquille, E. 7th Street, | | Change Station
CLOSE
Current Station
Personal Weather Station
Location: Coquille, OR
Elevation: 121 ft
Nearby Weather Stations

Elev 121 ft 43.18 °N, 124.18 °W | Updated 11 minutes ago

Clear
Clear
50.4 °F
Feels Like 50.4 °F
N
0.0
Wind Variable Wind from ESE

Today
High -- | Low -- °F
--% Chance of Precip.
Yesterday
High -- | Low -- °F
Precip. -- in
Pressure 30.25 in
Visibility 10.0 miles
Clouds Clear
Dew Point 50 °F
Humidity 98%
Rainfall 0.00 in
Snow Depth Not available.
7:24 AM 5:37 PM
Waning Crescent, 0% visible
METAR KOTH 081455Z 16004KT 10SM CLR 13/08 A3025 RMK AO1 57007
Pressure 30.25 in
Visibility 10.0 miles
Clouds Clear
Dew Point 50 °F
Humidity 98%
Rainfall 0.00 in
Snow Depth Not available.
7:24 AM 5:37 PM
Waning Crescent, 0% visible
METAR KOTH 081455Z 16004KT 10SM CLR 13/08 A3025 RMK AO1 57007

10-Day Weather Forecast

Almanac

Astronomy

Feb. 08, 2016 Rise Set
Actual Time
Civil Twilight
Nautical Twilight
Astronomical Twilight
Moon
Length of Visible Light
Length of Day
Tomorrow will be .
, % of the Moon is Illuminated

Today's Extremes

State Highs State Lows

Community

WunderPhotos

Upload Photos

1,891,446 photos uploaded!

WunderBlog® & News

Nearby

Air Quality

  Air Quality AQ Index Pollutant
Not available.

Snow Depth

Station Depth Elevation

Earthquake Activity

City Distance Mag. Time & Date
Minimum magnitude displayed is 2.5.

Coastal Water Temperatures

Place Temperature

Stations

Nearby Weather Stations

Station Location Temp. Windchill Dew Point Humidity Wind Precip. Elev Updated Type
                   

Watches & Warnings

There are currently no watches in effect.